»·PEaware :: N181DJ KSNA-KCRQ

N181DJ :: KSNA-KCRQ

FLIGHT INFORMATION

Flight Status: Arrived
Operator: Privately registered:
United States
More flights under this callsign
Pilot: Brian H. (29287)
Aircraft: PIPER PA-28 CHEROKEE ARCHER
(PA28)
More flights by this aircraft type
Origin: KSNA John Wayne-Orange Co
United States
Destination: KCRQ McClellan-Palomar
United States
More flights between these airports :: More routes between these airports
Route: V23 OCN
File this flight plan on PilotEdge
Remarks:
Altitude:
(Current/Filed)
5,000ft
Speed:
(Current/Filed)
105kts
Departed: 28-Sep-20 03:00 PM
Arrived: 28-Sep-20 03:38 PM
Distance/Time
Traveled:
44nm/0:38
Distance/Time
To Go:
Arrived

Flight Plot

Page will automatically refresh every two minutes.


Map Options




Map Legend


Flown Route
Filed Route
Departure Airport
Arrival Airport
Navaid (VOR, NDB)
Fix

Horizontal Profiles

Position Reports

Time Latitude Longitude Heading Altitude Ground
Speed
28-Sep-20 14:47 33.676208 -117.871102 212 4ft 0kts
28-Sep-20 14:48 33.676208 -117.871102 212 4ft 0kts
28-Sep-20 14:49 33.676208 -117.871102 212 4ft 0kts
28-Sep-20 14:50 33.676208 -117.871102 212 4ft 0kts
28-Sep-20 14:51 33.676208 -117.871102 212 4ft 0kts
28-Sep-20 14:52 33.676208 -117.871102 212 4ft 0kts
28-Sep-20 14:53 33.676208 -117.871102 212 4ft 0kts
28-Sep-20 14:54 33.676208 -117.871102 212 4ft 0kts
28-Sep-20 14:55 33.676208 -117.871102 212 4ft 0kts
28-Sep-20 14:56 33.677295 -117.869305 28 4ft 30kts
28-Sep-20 14:57 33.681281 -117.866674 91 4ft 7kts
28-Sep-20 14:58 33.681231 -117.866440 110 4ft 0kts
28-Sep-20 14:59 33.677665 -117.867549 207 4ft 73kts
28-Sep-20 15:00 33.656251 -117.882385 207 817ft 87kts
28-Sep-20 15:01 33.631796 -117.888760 188 1642ft 93kts
28-Sep-20 15:02 33.605820 -117.892814 179 2421ft 95kts
28-Sep-20 15:03 33.580530 -117.887608 136 3144ft 96kts
28-Sep-20 15:04 33.568926 -117.858689 111 3818ft 97kts
28-Sep-20 15:05 33.558928 -117.827962 111 4524ft 100kts
28-Sep-20 15:06 33.548825 -117.796873 111 5241ft 99kts
28-Sep-20 15:07 33.536117 -117.762093 124 5056ft 103kts
28-Sep-20 15:08 33.513267 -117.740252 135 4887ft 102kts
28-Sep-20 15:09 33.492576 -117.713629 131 4987ft 123kts
28-Sep-20 15:10 33.467773 -117.682359 135 4983ft 132kts
28-Sep-20 15:11 33.441333 -117.651547 135 4982ft 133kts
28-Sep-20 15:12 33.414757 -117.620542 135 4982ft 133kts
28-Sep-20 15:13 33.388257 -117.589588 135 4982ft 133kts
28-Sep-20 15:14 33.361753 -117.558593 135 4982ft 133kts
28-Sep-20 15:15 33.335214 -117.527518 135 4982ft 133kts
28-Sep-20 15:16 33.308779 -117.496529 135 4982ft 133kts
28-Sep-20 15:17 33.282302 -117.465451 135 4982ft 133kts
28-Sep-20 15:18 33.255868 -117.434387 135 4982ft 133kts
28-Sep-20 15:19 33.239038 -117.397410 91 4983ft 132kts
28-Sep-20 15:20 33.237912 -117.353175 91 4982ft 133kts
28-Sep-20 15:21 33.236822 -117.308487 91 4982ft 133kts
28-Sep-20 15:22 33.235770 -117.264253 91 4982ft 133kts
28-Sep-20 15:23 33.234742 -117.219893 91 4982ft 133kts
28-Sep-20 15:24 33.233745 -117.175707 91 4996ft 132kts
28-Sep-20 15:26 33.232715 -117.128998 91 4577ft 147kts
28-Sep-20 15:27 33.231645 -117.079479 91 4053ft 149kts
28-Sep-20 15:28 33.228610 -117.033206 126 4001ft 135kts
28-Sep-20 15:29 33.193997 -117.026102 214 4005ft 131kts
28-Sep-20 15:30 33.168543 -117.054416 227 3523ft 122kts
28-Sep-20 15:31 33.159059 -117.088261 263 3423ft 102kts
28-Sep-20 15:32 33.153078 -117.121747 260 3282ft 103kts
28-Sep-20 15:33 33.147904 -117.156786 258 2807ft 113kts
28-Sep-20 15:34 33.141451 -117.192981 261 2084ft 100kts
28-Sep-20 15:35 33.137526 -117.222636 259 1353ft 92kts
28-Sep-20 15:36 33.132565 -117.253122 260 338ft 87kts
28-Sep-20 15:37 33.128824 -117.277058 259 4ft 49kts
28-Sep-20 15:38 33.126903 -117.283373 215 5ft 0kts
28-Sep-20 15:39 33.126903 -117.283373 215 5ft 0kts
28-Sep-20 15:40 33.126205 -117.282518 354 5ft 0kts

Navigation Log

Ident Type
Flight plan parsing failed, navigation log unavailable